sensor_id;sensor_type;location;lat;lon;timestamp;temperature;humidity
48666;DHT22;34452;50.796;4.994;2023-07-20T00:01:58;16.40;99.90
48666;DHT22;34452;50.796;4.994;2023-07-20T00:04:24;16.30;99.90
48666;DHT22;34452;50.796;4.994;2023-07-20T00:06:49;16.30;99.90
48666;DHT22;34452;50.796;4.994;2023-07-20T00:09:15;16.30;99.90
48666;DHT22;34452;50.796;4.994;2023-07-20T00:11:49;16.30;99.90
48666;DHT22;34452;50.796;4.994;2023-07-20T00:14:17;16.20;99.90
48666;DHT22;34452;50.796;4.994;2023-07-20T00:16:44;16.20;99.90
48666;DHT22;34452;50.796;4.994;2023-07-20T00:19:12;16.30;99.90
48666;DHT22;34452;50.796;4.994;2023-07-20T00:21:37;16.30;99.90
48666;DHT22;34452;50.796;4.994;2023-07-20T00:24:06;16.30;99.90
48666;DHT22;34452;50.796;4.994;2023-07-20T00:26:32;16.20;99.90
48666;DHT22;34452;50.796;4.994;2023-07-20T00:28:57;16.30;99.90
48666;DHT22;34452;50.796;4.994;2023-07-20T00:31:23;16.30;99.90
48666;DHT22;34452;50.796;4.994;2023-07-20T00:33:49;16.30;99.90
48666;DHT22;34452;50.796;4.994;2023-07-20T00:36:14;16.40;99.90
48666;DHT22;34452;50.796;4.994;2023-07-20T00:38:40;16.40;99.90
48666;DHT22;34452;50.796;4.994;2023-07-20T00:41:06;16.40;99.90
48666;DHT22;34452;50.796;4.994;2023-07-20T00:43:32;16.40;99.90
48666;DHT22;34452;50.796;4.994;2023-07-20T00:45:57;16.40;99.90
48666;DHT22;34452;50.796;4.994;2023-07-20T00:48:23;16.40;99.90
48666;DHT22;34452;50.796;4.994;2023-07-20T00:50:50;16.50;99.90
48666;DHT22;34452;50.796;4.994;2023-07-20T00:53:15;16.50;99.90
48666;DHT22;34452;50.796;4.994;2023-07-20T00:55:41;16.50;99.90
48666;DHT22;34452;50.796;4.994;2023-07-20T00:58:08;16.50;99.90
48666;DHT22;34452;50.796;4.994;2023-07-20T01:00:34;16.50;99.90
48666;DHT22;34452;50.796;4.994;2023-07-20T01:02:59;16.50;99.90
48666;DHT22;34452;50.796;4.994;2023-07-20T01:05:35;16.50;99.90
48666;DHT22;34452;50.796;4.994;2023-07-20T01:08:24;16.50;99.90
48666;DHT22;34452;50.796;4.994;2023-07-20T01:11:13;16.50;99.90
48666;DHT22;34452;50.796;4.994;2023-07-20T01:13:42;16.50;99.90
48666;DHT22;34452;50.796;4.994;2023-07-20T01:16:09;16.50;99.90
48666;DHT22;34452;50.796;4.994;2023-07-20T01:18:34;16.50;99.90
48666;DHT22;34452;50.796;4.994;2023-07-20T01:21:08;16.50;99.90
48666;DHT22;34452;50.796;4.994;2023-07-20T01:26:27;16.60;99.90
48666;DHT22;34452;50.796;4.994;2023-07-20T01:29:17;16.60;99.90
48666;DHT22;34452;50.796;4.994;2023-07-20T01:31:51;16.60;99.90
48666;DHT22;34452;50.796;4.994;2023-07-20T01:34:19;16.60;99.90
48666;DHT22;34452;50.796;4.994;2023-07-20T01:36:48;16.60;99.90
48666;DHT22;34452;50.796;4.994;2023-07-20T01:39:16;16.60;99.90
48666;DHT22;34452;50.796;4.994;2023-07-20T01:41:42;16.60;99.90
48666;DHT22;34452;50.796;4.994;2023-07-20T01:44:08;16.60;99.90
48666;DHT22;34452;50.796;4.994;2023-07-20T01:46:34;16.60;99.90
48666;DHT22;34452;50.796;4.994;2023-07-20T01:48:59;16.60;99.90
48666;DHT22;34452;50.796;4.994;2023-07-20T01:51:25;16.60;99.90
48666;DHT22;34452;50.796;4.994;2023-07-20T01:53:51;16.60;99.90
48666;DHT22;34452;50.796;4.994;2023-07-20T01:56:16;16.60;99.90
48666;DHT22;34452;50.796;4.994;2023-07-20T01:58:42;16.50;99.90
48666;DHT22;34452;50.796;4.994;2023-07-20T02:01:08;16.60;99.90
48666;DHT22;34452;50.796;4.994;2023-07-20T02:03:34;16.50;99.90
48666;DHT22;34452;50.796;4.994;2023-07-20T02:05:59;16.50;99.90
48666;DHT22;34452;50.796;4.994;2023-07-20T02:08:25;16.50;99.90
48666;DHT22;34452;50.796;4.994;2023-07-20T02:10:51;16.50;99.90
48666;DHT22;34452;50.796;4.994;2023-07-20T02:13:17;16.50;99.90
48666;DHT22;34452;50.796;4.994;2023-07-20T02:15:43;16.40;99.90
48666;DHT22;34452;50.796;4.994;2023-07-20T02:18:09;16.40;99.90
48666;DHT22;34452;50.796;4.994;2023-07-20T02:20:35;16.30;99.90
48666;DHT22;34452;50.796;4.994;2023-07-20T02:23:01;16.30;99.90
48666;DHT22;34452;50.796;4.994;2023-07-20T02:25:27;16.20;99.90
48666;DHT22;34452;50.796;4.994;2023-07-20T02:27:52;16.20;99.90
48666;DHT22;34452;50.796;4.994;2023-07-20T02:30:18;16.10;99.90
48666;DHT22;34452;50.796;4.994;2023-07-20T02:32:44;16.10;99.90
48666;DHT22;34452;50.796;4.994;2023-07-20T02:35:11;16.10;99.90
48666;DHT22;34452;50.796;4.994;2023-07-20T02:37:37;16.00;99.90
48666;DHT22;34452;50.796;4.994;2023-07-20T02:40:03;16.00;99.90
48666;DHT22;34452;50.796;4.994;2023-07-20T02:42:30;16.00;99.90
48666;DHT22;34452;50.796;4.994;2023-07-20T02:44:56;16.00;99.90
48666;DHT22;34452;50.796;4.994;2023-07-20T02:47:22;15.90;99.90
48666;DHT22;34452;50.796;4.994;2023-07-20T02:49:47;15.90;99.90
48666;DHT22;34452;50.796;4.994;2023-07-20T02:52:13;16.00;99.90
48666;DHT22;34452;50.796;4.994;2023-07-20T02:54:39;16.00;99.90
48666;DHT22;34452;50.796;4.994;2023-07-20T02:57:05;16.00;99.90
48666;DHT22;34452;50.796;4.994;2023-07-20T02:59:31;16.00;99.90
48666;DHT22;34452;50.796;4.994;2023-07-20T03:01:56;15.90;99.90
48666;DHT22;34452;50.796;4.994;2023-07-20T03:04:25;15.90;99.90
48666;DHT22;34452;50.796;4.994;2023-07-20T03:06:51;16.00;99.90
48666;DHT22;34452;50.796;4.994;2023-07-20T03:09:16;16.00;99.90
48666;DHT22;34452;50.796;4.994;2023-07-20T03:11:42;16.10;99.90
48666;DHT22;34452;50.796;4.994;2023-07-20T03:14:08;16.00;99.90
48666;DHT22;34452;50.796;4.994;2023-07-20T03:16:36;16.00;99.90
48666;DHT22;34452;50.796;4.994;2023-07-20T03:19:02;16.10;99.90
48666;DHT22;34452;50.796;4.994;2023-07-20T03:21:28;16.00;99.90
48666;DHT22;34452;50.796;4.994;2023-07-20T03:23:54;16.10;99.90
48666;DHT22;34452;50.796;4.994;2023-07-20T03:26:20;16.10;99.90
48666;DHT22;34452;50.796;4.994;2023-07-20T03:28:45;16.10;99.90
48666;DHT22;34452;50.796;4.994;2023-07-20T03:31:11;16.10;99.90
48666;DHT22;34452;50.796;4.994;2023-07-20T03:33:37;16.00;99.90
48666;DHT22;34452;50.796;4.994;2023-07-20T03:36:03;16.00;99.90
48666;DHT22;34452;50.796;4.994;2023-07-20T03:38:28;16.00;99.90
48666;DHT22;34452;50.796;4.994;2023-07-20T03:40:57;16.00;99.90
48666;DHT22;34452;50.796;4.994;2023-07-20T03:43:24;16.00;99.90
48666;DHT22;34452;50.796;4.994;2023-07-20T03:45:50;15.90;99.90
48666;DHT22;34452;50.796;4.994;2023-07-20T03:48:18;15.90;99.90
48666;DHT22;34452;50.796;4.994;2023-07-20T03:50:45;15.90;99.90
48666;DHT22;34452;50.796;4.994;2023-07-20T03:53:13;15.80;99.90
48666;DHT22;34452;50.796;4.994;2023-07-20T03:55:38;15.80;99.90
48666;DHT22;34452;50.796;4.994;2023-07-20T03:58:06;15.80;99.90
48666;DHT22;34452;50.796;4.994;2023-07-20T04:00:32;15.90;99.90
48666;DHT22;34452;50.796;4.994;2023-07-20T04:02:58;15.90;99.90
48666;DHT22;34452;50.796;4.994;2023-07-20T04:05:24;15.90;99.90
48666;DHT22;34452;50.796;4.994;2023-07-20T04:07:51;15.90;99.90
48666;DHT22;34452;50.796;4.994;2023-07-20T04:10:17;15.90;99.90
48666;DHT22;34452;50.796;4.994;2023-07-20T04:12:43;15.90;99.90
48666;DHT22;34452;50.796;4.994;2023-07-20T04:15:10;15.80;99.90
48666;DHT22;34452;50.796;4.994;2023-07-20T04:17:35;15.90;99.90
48666;DHT22;34452;50.796;4.994;2023-07-20T04:20:01;16.00;99.90
48666;DHT22;34452;50.796;4.994;2023-07-20T04:22:28;16.00;99.90
48666;DHT22;34452;50.796;4.994;2023-07-20T04:24:54;16.10;99.90
48666;DHT22;34452;50.796;4.994;2023-07-20T04:27:19;16.10;99.90
48666;DHT22;34452;50.796;4.994;2023-07-20T04:29:45;16.20;99.90
48666;DHT22;34452;50.796;4.994;2023-07-20T04:32:11;16.20;99.90
48666;DHT22;34452;50.796;4.994;2023-07-20T04:34:36;16.20;99.90
48666;DHT22;34452;50.796;4.994;2023-07-20T04:37:03;16.20;99.90
48666;DHT22;34452;50.796;4.994;2023-07-20T04:39:29;16.20;99.90
48666;DHT22;34452;50.796;4.994;2023-07-20T04:41:56;16.20;99.90
48666;DHT22;34452;50.796;4.994;2023-07-20T04:44:21;16.30;99.90
48666;DHT22;34452;50.796;4.994;2023-07-20T04:46:47;16.30;99.90
48666;DHT22;34452;50.796;4.994;2023-07-20T04:49:13;16.30;99.90
48666;DHT22;34452;50.796;4.994;2023-07-20T04:51:39;16.30;99.90
48666;DHT22;34452;50.796;4.994;2023-07-20T04:54:05;16.30;99.90
48666;DHT22;34452;50.796;4.994;2023-07-20T04:56:31;16.30;99.90
48666;DHT22;34452;50.796;4.994;2023-07-20T04:58:56;16.30;99.90
48666;DHT22;34452;50.796;4.994;2023-07-20T05:01:23;16.40;99.90
48666;DHT22;34452;50.796;4.994;2023-07-20T05:03:48;16.40;99.90
48666;DHT22;34452;50.796;4.994;2023-07-20T05:06:15;16.40;99.90
48666;DHT22;34452;50.796;4.994;2023-07-20T05:08:40;16.50;99.90
48666;DHT22;34452;50.796;4.994;2023-07-20T05:11:07;16.50;99.90
48666;DHT22;34452;50.796;4.994;2023-07-20T05:13:33;16.60;99.90
48666;DHT22;34452;50.796;4.994;2023-07-20T05:15:58;16.60;99.90
48666;DHT22;34452;50.796;4.994;2023-07-20T05:18:24;16.70;99.90
48666;DHT22;34452;50.796;4.994;2023-07-20T05:20:51;16.70;99.90
48666;DHT22;34452;50.796;4.994;2023-07-20T05:23:18;16.80;99.90
48666;DHT22;34452;50.796;4.994;2023-07-20T05:25:44;16.80;99.90
48666;DHT22;34452;50.796;4.994;2023-07-20T05:28:09;16.90;99.90
48666;DHT22;34452;50.796;4.994;2023-07-20T05:30:35;16.80;99.90
48666;DHT22;34452;50.796;4.994;2023-07-20T05:33:01;16.80;99.90
48666;DHT22;34452;50.796;4.994;2023-07-20T05:35:27;16.90;99.90
48666;DHT22;34452;50.796;4.994;2023-07-20T05:37:52;16.90;99.90
48666;DHT22;34452;50.796;4.994;2023-07-20T05:40:18;16.90;99.90
48666;DHT22;34452;50.796;4.994;2023-07-20T05:42:45;16.90;99.90
48666;DHT22;34452;50.796;4.994;2023-07-20T05:45:13;17.00;99.90
48666;DHT22;34452;50.796;4.994;2023-07-20T05:47:41;17.00;99.90
48666;DHT22;34452;50.796;4.994;2023-07-20T05:50:07;17.00;99.90
48666;DHT22;34452;50.796;4.994;2023-07-20T05:52:33;17.00;99.90
48666;DHT22;34452;50.796;4.994;2023-07-20T05:54:59;17.00;99.90
48666;DHT22;34452;50.796;4.994;2023-07-20T05:57:25;17.00;99.90
48666;DHT22;34452;50.796;4.994;2023-07-20T05:59:50;17.00;99.90
48666;DHT22;34452;50.796;4.994;2023-07-20T06:02:16;17.00;99.90
48666;DHT22;34452;50.796;4.994;2023-07-20T06:04:42;17.10;99.90
48666;DHT22;34452;50.796;4.994;2023-07-20T06:07:08;17.10;99.90
48666;DHT22;34452;50.796;4.994;2023-07-20T06:09:33;17.10;99.90
48666;DHT22;34452;50.796;4.994;2023-07-20T06:11:59;17.20;99.90
48666;DHT22;34452;50.796;4.994;2023-07-20T06:14:25;17.20;99.90
48666;DHT22;34452;50.796;4.994;2023-07-20T06:16:51;17.20;99.90
48666;DHT22;34452;50.796;4.994;2023-07-20T06:19:17;17.30;99.90
48666;DHT22;34452;50.796;4.994;2023-07-20T06:21:43;17.30;99.90
48666;DHT22;34452;50.796;4.994;2023-07-20T06:24:09;17.20;99.90
48666;DHT22;34452;50.796;4.994;2023-07-20T06:26:34;17.30;99.90
48666;DHT22;34452;50.796;4.994;2023-07-20T06:29:13;17.40;99.90
48666;DHT22;34452;50.796;4.994;2023-07-20T06:31:39;17.40;99.90
48666;DHT22;34452;50.796;4.994;2023-07-20T06:34:05;17.40;99.90
48666;DHT22;34452;50.796;4.994;2023-07-20T06:36:30;17.40;99.90
48666;DHT22;34452;50.796;4.994;2023-07-20T06:38:56;17.40;99.90
48666;DHT22;34452;50.796;4.994;2023-07-20T06:41:22;17.50;99.90
48666;DHT22;34452;50.796;4.994;2023-07-20T06:43:48;17.50;99.90
48666;DHT22;34452;50.796;4.994;2023-07-20T06:46:13;17.50;99.90
48666;DHT22;34452;50.796;4.994;2023-07-20T06:48:39;17.60;99.90
48666;DHT22;34452;50.796;4.994;2023-07-20T06:51:05;17.60;99.90
48666;DHT22;34452;50.796;4.994;2023-07-20T06:53:31;17.60;99.90
48666;DHT22;34452;50.796;4.994;2023-07-20T06:55:57;17.50;99.90
48666;DHT22;34452;50.796;4.994;2023-07-20T06:58:24;17.50;99.90
48666;DHT22;34452;50.796;4.994;2023-07-20T07:00:50;17.60;99.90
48666;DHT22;34452;50.796;4.994;2023-07-20T07:03:16;17.60;99.90
48666;DHT22;34452;50.796;4.994;2023-07-20T07:05:41;17.60;99.90
48666;DHT22;34452;50.796;4.994;2023-07-20T07:08:07;17.60;99.90
48666;DHT22;34452;50.796;4.994;2023-07-20T07:10:35;17.60;99.90
48666;DHT22;34452;50.796;4.994;2023-07-20T07:13:01;17.60;99.90
48666;DHT22;34452;50.796;4.994;2023-07-20T07:15:27;17.70;99.90
48666;DHT22;34452;50.796;4.994;2023-07-20T07:17:53;17.80;99.90
48666;DHT22;34452;50.796;4.994;2023-07-20T07:20:19;17.80;99.90
48666;DHT22;34452;50.796;4.994;2023-07-20T07:22:45;17.70;99.90
48666;DHT22;34452;50.796;4.994;2023-07-20T07:25:12;17.70;99.90
48666;DHT22;34452;50.796;4.994;2023-07-20T07:27:38;17.80;99.90
48666;DHT22;34452;50.796;4.994;2023-07-20T07:30:04;17.80;99.90
48666;DHT22;34452;50.796;4.994;2023-07-20T07:32:31;17.90;99.90
48666;DHT22;34452;50.796;4.994;2023-07-20T07:34:57;17.90;99.90
48666;DHT22;34452;50.796;4.994;2023-07-20T07:37:24;17.90;99.90
48666;DHT22;34452;50.796;4.994;2023-07-20T07:39:49;17.80;99.90
48666;DHT22;34452;50.796;4.994;2023-07-20T07:42:15;17.80;99.90
48666;DHT22;34452;50.796;4.994;2023-07-20T07:44:41;17.90;99.90
48666;DHT22;34452;50.796;4.994;2023-07-20T07:47:07;18.00;99.90
48666;DHT22;34452;50.796;4.994;2023-07-20T07:49:32;18.20;99.90
48666;DHT22;34452;50.796;4.994;2023-07-20T07:51:58;18.10;99.90
48666;DHT22;34452;50.796;4.994;2023-07-20T07:54:24;18.10;99.90
48666;DHT22;34452;50.796;4.994;2023-07-20T07:56:50;18.20;99.90
48666;DHT22;34452;50.796;4.994;2023-07-20T07:59:17;18.30;99.90
48666;DHT22;34452;50.796;4.994;2023-07-20T08:01:42;18.30;99.90
48666;DHT22;34452;50.796;4.994;2023-07-20T08:04:08;18.20;99.90
48666;DHT22;34452;50.796;4.994;2023-07-20T08:06:34;18.30;99.90
48666;DHT22;34452;50.796;4.994;2023-07-20T08:09:00;18.30;99.90
48666;DHT22;34452;50.796;4.994;2023-07-20T08:11:26;18.40;99.90
48666;DHT22;34452;50.796;4.994;2023-07-20T08:13:51;18.40;99.90
48666;DHT22;34452;50.796;4.994;2023-07-20T08:16:17;18.40;99.90
48666;DHT22;34452;50.796;4.994;2023-07-20T08:18:43;18.50;99.90
48666;DHT22;34452;50.796;4.994;2023-07-20T08:21:10;18.60;99.90
48666;DHT22;34452;50.796;4.994;2023-07-20T08:23:36;18.60;99.90
48666;DHT22;34452;50.796;4.994;2023-07-20T08:26:02;18.70;99.90
48666;DHT22;34452;50.796;4.994;2023-07-20T08:28:27;18.60;99.90
48666;DHT22;34452;50.796;4.994;2023-07-20T08:30:54;18.60;99.90
48666;DHT22;34452;50.796;4.994;2023-07-20T08:33:20;18.70;99.90
48666;DHT22;34452;50.796;4.994;2023-07-20T08:35:46;18.80;99.90
48666;DHT22;34452;50.796;4.994;2023-07-20T08:38:12;18.90;99.90
48666;DHT22;34452;50.796;4.994;2023-07-20T08:40:42;19.00;99.90
48666;DHT22;34452;50.796;4.994;2023-07-20T08:43:10;19.20;99.90
48666;DHT22;34452;50.796;4.994;2023-07-20T08:45:36;19.40;99.90
48666;DHT22;34452;50.796;4.994;2023-07-20T08:48:05;19.40;99.90
48666;DHT22;34452;50.796;4.994;2023-07-20T08:50:31;19.70;99.90
48666;DHT22;34452;50.796;4.994;2023-07-20T08:52:58;19.90;99.90
48666;DHT22;34452;50.796;4.994;2023-07-20T08:55:26;19.90;99.90
48666;DHT22;34452;50.796;4.994;2023-07-20T08:57:54;19.80;99.90
48666;DHT22;34452;50.796;4.994;2023-07-20T09:00:21;19.70;99.90
48666;DHT22;34452;50.796;4.994;2023-07-20T09:02:49;19.70;99.90
48666;DHT22;34452;50.796;4.994;2023-07-20T09:05:17;19.60;99.90
48666;DHT22;34452;50.796;4.994;2023-07-20T09:07:43;19.50;99.90
48666;DHT22;34452;50.796;4.994;2023-07-20T09:10:09;19.60;99.90
48666;DHT22;34452;50.796;4.994;2023-07-20T09:12:38;19.70;99.90
48666;DHT22;34452;50.796;4.994;2023-07-20T09:15:05;19.70;99.90
48666;DHT22;34452;50.796;4.994;2023-07-20T09:17:31;20.00;99.90
48666;DHT22;34452;50.796;4.994;2023-07-20T09:19:57;20.00;99.90
48666;DHT22;34452;50.796;4.994;2023-07-20T09:22:30;19.90;99.90
48666;DHT22;34452;50.796;4.994;2023-07-20T09:24:57;19.80;99.90
48666;DHT22;34452;50.796;4.994;2023-07-20T09:27:29;19.80;99.90
48666;DHT22;34452;50.796;4.994;2023-07-20T09:29:56;20.00;99.90
48666;DHT22;34452;50.796;4.994;2023-07-20T09:32:22;20.30;99.90
48666;DHT22;34452;50.796;4.994;2023-07-20T09:34:50;20.50;99.90
48666;DHT22;34452;50.796;4.994;2023-07-20T09:37:32;20.60;99.90
48666;DHT22;34452;50.796;4.994;2023-07-20T09:39:58;20.60;99.90
48666;DHT22;34452;50.796;4.994;2023-07-20T09:42:25;20.70;99.90
48666;DHT22;34452;50.796;4.994;2023-07-20T09:44:51;20.70;99.90
48666;DHT22;34452;50.796;4.994;2023-07-20T09:47:22;20.60;99.90
48666;DHT22;34452;50.796;4.994;2023-07-20T09:49:48;20.70;99.90
48666;DHT22;34452;50.796;4.994;2023-07-20T09:52:15;21.00;99.90
48666;DHT22;34452;50.796;4.994;2023-07-20T09:54:44;21.00;99.90
48666;DHT22;34452;50.796;4.994;2023-07-20T09:57:11;21.10;99.90
48666;DHT22;34452;50.796;4.994;2023-07-20T09:59:39;21.30;99.90
48666;DHT22;34452;50.796;4.994;2023-07-20T10:02:12;21.30;99.90
48666;DHT22;34452;50.796;4.994;2023-07-20T10:04:43;21.60;99.90
48666;DHT22;34452;50.796;4.994;2023-07-20T10:07:10;21.80;99.90
48666;DHT22;34452;50.796;4.994;2023-07-20T10:09:39;21.90;99.90
48666;DHT22;34452;50.796;4.994;2023-07-20T10:12:07;22.00;99.90
48666;DHT22;34452;50.796;4.994;2023-07-20T10:14:36;21.80;99.90
48666;DHT22;34452;50.796;4.994;2023-07-20T10:17:05;21.60;99.90
48666;DHT22;34452;50.796;4.994;2023-07-20T10:22:26;21.20;99.90
48666;DHT22;34452;50.796;4.994;2023-07-20T10:24:53;21.00;99.90
48666;DHT22;34452;50.796;4.994;2023-07-20T10:27:21;20.90;99.90
48666;DHT22;34452;50.796;4.994;2023-07-20T10:29:47;20.90;99.90
48666;DHT22;34452;50.796;4.994;2023-07-20T10:32:13;21.10;99.90
48666;DHT22;34452;50.796;4.994;2023-07-20T10:34:39;21.50;99.90
48666;DHT22;34452;50.796;4.994;2023-07-20T10:37:05;21.60;99.90
48666;DHT22;34452;50.796;4.994;2023-07-20T10:39:32;21.90;99.90
48666;DHT22;34452;50.796;4.994;2023-07-20T10:42:09;22.20;99.90
48666;DHT22;34452;50.796;4.994;2023-07-20T10:44:52;22.50;99.90
48666;DHT22;34452;50.796;4.994;2023-07-20T10:47:17;22.70;99.30
48666;DHT22;34452;50.796;4.994;2023-07-20T10:50:01;23.00;98.80
48666;DHT22;34452;50.796;4.994;2023-07-20T10:52:37;23.20;97.40
48666;DHT22;34452;50.796;4.994;2023-07-20T10:55:20;23.40;95.70
48666;DHT22;34452;50.796;4.994;2023-07-20T10:58:07;23.50;94.80
48666;DHT22;34452;50.796;4.994;2023-07-20T11:00:34;23.50;95.60
48666;DHT22;34452;50.796;4.994;2023-07-20T11:03:00;23.30;95.40
48666;DHT22;34452;50.796;4.994;2023-07-20T11:05:38;23.00;95.30
48666;DHT22;34452;50.796;4.994;2023-07-20T11:08:06;22.70;94.60
48666;DHT22;34452;50.796;4.994;2023-07-20T11:10:32;22.60;95.40
48666;DHT22;34452;50.796;4.994;2023-07-20T11:18:26;22.40;96.30
48666;DHT22;34452;50.796;4.994;2023-07-20T11:20:53;22.30;95.80
48666;DHT22;34452;50.796;4.994;2023-07-20T11:23:20;22.40;96.00
48666;DHT22;34452;50.796;4.994;2023-07-20T11:25:46;22.50;96.10
48666;DHT22;34452;50.796;4.994;2023-07-20T11:28:12;22.60;95.80
48666;DHT22;34452;50.796;4.994;2023-07-20T11:30:38;22.60;95.60
48666;DHT22;34452;50.796;4.994;2023-07-20T11:33:06;22.50;95.30
48666;DHT22;34452;50.796;4.994;2023-07-20T11:35:45;22.60;95.60
48666;DHT22;34452;50.796;4.994;2023-07-20T11:38:13;22.70;96.30
48666;DHT22;34452;50.796;4.994;2023-07-20T11:40:58;22.80;95.20
48666;DHT22;34452;50.796;4.994;2023-07-20T11:43:23;22.80;93.80
48666;DHT22;34452;50.796;4.994;2023-07-20T11:45:49;23.00;92.90
48666;DHT22;34452;50.796;4.994;2023-07-20T11:48:16;22.80;92.20
48666;DHT22;34452;50.796;4.994;2023-07-20T11:50:42;23.00;94.10
48666;DHT22;34452;50.796;4.994;2023-07-20T11:53:08;23.40;94.20
48666;DHT22;34452;50.796;4.994;2023-07-20T11:55:34;23.60;91.90
48666;DHT22;34452;50.796;4.994;2023-07-20T11:58:03;23.70;91.20
48666;DHT22;34452;50.796;4.994;2023-07-20T12:00:28;23.40;90.00
48666;DHT22;34452;50.796;4.994;2023-07-20T12:02:54;23.20;90.80
48666;DHT22;34452;50.796;4.994;2023-07-20T12:05:22;23.10;91.80
48666;DHT22;34452;50.796;4.994;2023-07-20T12:07:50;23.10;91.30
48666;DHT22;34452;50.796;4.994;2023-07-20T12:10:25;23.40;91.10
48666;DHT22;34452;50.796;4.994;2023-07-20T12:12:52;23.50;89.20
48666;DHT22;34452;50.796;4.994;2023-07-20T12:15:29;23.50;90.30
48666;DHT22;34452;50.796;4.994;2023-07-20T12:17:57;23.90;89.50
48666;DHT22;34452;50.796;4.994;2023-07-20T12:20:36;24.10;87.20
48666;DHT22;34452;50.796;4.994;2023-07-20T12:23:04;24.40;89.60
48666;DHT22;34452;50.796;4.994;2023-07-20T12:25:45;24.80;86.60
48666;DHT22;34452;50.796;4.994;2023-07-20T12:28:12;24.90;85.00
48666;DHT22;34452;50.796;4.994;2023-07-20T12:30:40;25.00;81.60
48666;DHT22;34452;50.796;4.994;2023-07-20T12:33:06;25.00;79.00
48666;DHT22;34452;50.796;4.994;2023-07-20T12:35:32;24.80;80.70
48666;DHT22;34452;50.796;4.994;2023-07-20T12:37:58;24.70;80.20
48666;DHT22;34452;50.796;4.994;2023-07-20T12:40:24;24.90;81.20
48666;DHT22;34452;50.796;4.994;2023-07-20T12:42:50;25.10;80.60
48666;DHT22;34452;50.796;4.994;2023-07-20T12:45:16;25.20;81.50
48666;DHT22;34452;50.796;4.994;2023-07-20T12:47:42;24.90;77.60
48666;DHT22;34452;50.796;4.994;2023-07-20T12:50:10;24.50;79.90
48666;DHT22;34452;50.796;4.994;2023-07-20T12:52:38;24.20;82.30
48666;DHT22;34452;50.796;4.994;2023-07-20T12:55:04;24.10;82.80
48666;DHT22;34452;50.796;4.994;2023-07-20T12:57:30;23.90;82.60
48666;DHT22;34452;50.796;4.994;2023-07-20T12:59:56;23.60;82.00
48666;DHT22;34452;50.796;4.994;2023-07-20T13:02:22;23.40;81.90
48666;DHT22;34452;50.796;4.994;2023-07-20T13:04:48;23.50;84.00
48666;DHT22;34452;50.796;4.994;2023-07-20T13:07:13;24.00;86.10
48666;DHT22;34452;50.796;4.994;2023-07-20T13:09:39;24.30;83.70
48666;DHT22;34452;50.796;4.994;2023-07-20T13:12:05;24.50;82.80
48666;DHT22;34452;50.796;4.994;2023-07-20T13:14:31;24.50;81.30
48666;DHT22;34452;50.796;4.994;2023-07-20T13:16:57;24.80;83.80
48666;DHT22;34452;50.796;4.994;2023-07-20T13:19:23;25.00;82.20
48666;DHT22;34452;50.796;4.994;2023-07-20T13:21:48;25.20;80.90
48666;DHT22;34452;50.796;4.994;2023-07-20T13:24:14;25.40;78.10
48666;DHT22;34452;50.796;4.994;2023-07-20T13:26:40;25.40;76.40
48666;DHT22;34452;50.796;4.994;2023-07-20T13:29:06;25.00;78.20
48666;DHT22;34452;50.796;4.994;2023-07-20T13:31:32;25.00;79.50
48666;DHT22;34452;50.796;4.994;2023-07-20T13:33:58;25.30;78.30
48666;DHT22;34452;50.796;4.994;2023-07-20T13:36:24;25.40;75.70
48666;DHT22;34452;50.796;4.994;2023-07-20T13:38:49;25.60;75.30
48666;DHT22;34452;50.796;4.994;2023-07-20T13:41:15;25.30;75.10
48666;DHT22;34452;50.796;4.994;2023-07-20T13:43:42;25.00;75.90
48666;DHT22;34452;50.796;4.994;2023-07-20T13:46:07;24.60;75.60
48666;DHT22;34452;50.796;4.994;2023-07-20T13:48:33;24.10;79.70
48666;DHT22;34452;50.796;4.994;2023-07-20T13:50:59;23.90;78.60
48666;DHT22;34452;50.796;4.994;2023-07-20T13:53:25;24.30;79.20
48666;DHT22;34452;50.796;4.994;2023-07-20T13:55:50;24.70;79.30
48666;DHT22;34452;50.796;4.994;2023-07-20T13:58:18;25.10;78.60
48666;DHT22;34452;50.796;4.994;2023-07-20T14:00:43;25.20;77.10
48666;DHT22;34452;50.796;4.994;2023-07-20T14:03:09;25.00;75.10
48666;DHT22;34452;50.796;4.994;2023-07-20T14:05:35;25.10;77.10
48666;DHT22;34452;50.796;4.994;2023-07-20T14:08:00;24.60;75.50
48666;DHT22;34452;50.796;4.994;2023-07-20T14:10:26;24.70;76.60
48666;DHT22;34452;50.796;4.994;2023-07-20T14:12:52;25.00;76.30
48666;DHT22;34452;50.796;4.994;2023-07-20T14:15:17;25.20;75.10
48666;DHT22;34452;50.796;4.994;2023-07-20T14:17:44;25.10;77.00
48666;DHT22;34452;50.796;4.994;2023-07-20T14:20:10;24.80;74.30
48666;DHT22;34452;50.796;4.994;2023-07-20T14:22:36;24.60;74.80
48666;DHT22;34452;50.796;4.994;2023-07-20T14:25:02;24.40;78.00
48666;DHT22;34452;50.796;4.994;2023-07-20T14:27:28;24.60;76.20
48666;DHT22;34452;50.796;4.994;2023-07-20T14:29:54;24.70;73.90
48666;DHT22;34452;50.796;4.994;2023-07-20T14:32:20;25.00;74.60
48666;DHT22;34452;50.796;4.994;2023-07-20T14:34:46;24.80;73.60
48666;DHT22;34452;50.796;4.994;2023-07-20T14:37:11;24.50;73.80
48666;DHT22;34452;50.796;4.994;2023-07-20T14:39:38;24.30;74.40
48666;DHT22;34452;50.796;4.994;2023-07-20T14:42:04;24.00;73.40
48666;DHT22;34452;50.796;4.994;2023-07-20T14:44:30;23.80;74.30
48666;DHT22;34452;50.796;4.994;2023-07-20T14:46:55;23.60;73.70
48666;DHT22;34452;50.796;4.994;2023-07-20T14:49:21;23.40;75.20
48666;DHT22;34452;50.796;4.994;2023-07-20T14:51:47;23.20;76.50
48666;DHT22;34452;50.796;4.994;2023-07-20T14:54:15;23.20;76.90
48666;DHT22;34452;50.796;4.994;2023-07-20T14:56:49;23.10;76.70
48666;DHT22;34452;50.796;4.994;2023-07-20T14:59:16;22.90;75.40
48666;DHT22;34452;50.796;4.994;2023-07-20T15:01:43;22.90;76.10
48666;DHT22;34452;50.796;4.994;2023-07-20T15:04:11;22.90;76.40
48666;DHT22;34452;50.796;4.994;2023-07-20T15:06:37;22.90;77.00
48666;DHT22;34452;50.796;4.994;2023-07-20T15:09:03;22.90;78.10
48666;DHT22;34452;50.796;4.994;2023-07-20T15:11:29;22.80;80.80
48666;DHT22;34452;50.796;4.994;2023-07-20T15:13:55;22.80;78.30
48666;DHT22;34452;50.796;4.994;2023-07-20T15:16:23;22.70;77.90
48666;DHT22;34452;50.796;4.994;2023-07-20T15:18:49;22.60;79.60
48666;DHT22;34452;50.796;4.994;2023-07-20T15:21:15;22.60;79.90
48666;DHT22;34452;50.796;4.994;2023-07-20T15:23:42;22.60;80.00
48666;DHT22;34452;50.796;4.994;2023-07-20T15:26:08;22.70;81.40
48666;DHT22;34452;50.796;4.994;2023-07-20T15:28:34;22.70;80.30
48666;DHT22;34452;50.796;4.994;2023-07-20T15:31:01;22.80;81.20
48666;DHT22;34452;50.796;4.994;2023-07-20T15:33:27;22.80;79.60
48666;DHT22;34452;50.796;4.994;2023-07-20T15:35:53;23.00;79.70
48666;DHT22;34452;50.796;4.994;2023-07-20T15:38:19;23.60;78.20
48666;DHT22;34452;50.796;4.994;2023-07-20T15:40:45;24.60;75.40